<?xml version="1.0" encoding="UTF-8" standalone="no" ?>
<gpx xmlns="http://www.topografix.com/GPX/1/1" xmlns:xsi="http://www.w3.org/2001/XMLSchema-instance" xsi:schemaLocation="http://www.topografix.com/GPX/1/1 http://www.topografix.com/GPX/1/1/gpx.xsd" version="1.1" creator="VisuGPX - https://www.visugpx.com">
  <metadata>
    <name>La coquillade</name>
    <desc><![CDATA[Belle sortie bien dure pour les durs.]]></desc>
  </metadata>
  <trk>
    <name><![CDATA[coquillade]]></name>
    <trkseg>
      <trkpt lat="43.5011" lon="3.16577">
        <ele>139.80000305176</ele>
        <time>2011-12-10T08:20:33Z</time>
      </trkpt>
      <trkpt lat="43.50151" lon="3.1647">
        <ele>136.60000610352</ele>
        <time>2011-12-10T08:20:55Z</time>
      </trkpt>
      <trkpt lat="43.50086" lon="3.16415">
        <ele>136.60000610352</ele>
        <time>2011-12-10T08:21:12Z</time>
      </trkpt>
      <trkpt lat="43.50064" lon="3.16403">
        <ele>135.19999694824</ele>
        <time>2011-12-10T08:21:15Z</time>
      </trkpt>
      <trkpt lat="43.49936" lon="3.16279">
        <ele>126.80000305176</ele>
        <time>2011-12-10T08:21:38Z</time>
      </trkpt>
      <trkpt lat="43.4989" lon="3.16222">
        <ele>121.59999847412</ele>
        <time>2011-12-10T08:21:46Z</time>
      </trkpt>
      <trkpt lat="43.49917" lon="3.16131">
        <ele>118</ele>
        <time>2011-12-10T08:22:02Z</time>
      </trkpt>
      <trkpt lat="43.49896" lon="3.16084">
        <ele>109.80000305176</ele>
        <time>2011-12-10T08:22:12Z</time>
      </trkpt>
      <trkpt lat="43.49998" lon="3.16095">
        <ele>104.40000152588</ele>
        <time>2011-12-10T08:22:47Z</time>
      </trkpt>
      <trkpt lat="43.50024" lon="3.16062">
        <ele>103.40000152588</ele>
        <time>2011-12-10T08:23:03Z</time>
      </trkpt>
      <trkpt lat="43.49962" lon="3.1595">
        <ele>122</ele>
        <time>2011-12-10T08:24:49Z</time>
      </trkpt>
      <trkpt lat="43.49949" lon="3.15919">
        <ele>122</ele>
        <time>2011-12-10T08:25:01Z</time>
      </trkpt>
      <trkpt lat="43.49868" lon="3.1583">
        <ele>126</ele>
        <time>2011-12-10T08:25:54Z</time>
      </trkpt>
      <trkpt lat="43.49919" lon="3.15698">
        <ele>136.60000610352</ele>
        <time>2011-12-10T08:27:19Z</time>
      </trkpt>
      <trkpt lat="43.49922" lon="3.15683">
        <ele>136.60000610352</ele>
        <time>2011-12-10T08:27:30Z</time>
      </trkpt>
      <trkpt lat="43.4974" lon="3.15617">
        <ele>140.60000610352</ele>
        <time>2011-12-10T08:29:26Z</time>
      </trkpt>
      <trkpt lat="43.49647" lon="3.15681">
        <ele>139.19999694824</ele>
        <time>2011-12-10T08:29:53Z</time>
      </trkpt>
      <trkpt lat="43.4961" lon="3.15696">
        <ele>133.80000305176</ele>
        <time>2011-12-10T08:30:00Z</time>
      </trkpt>
      <trkpt lat="43.49588" lon="3.15463">
        <ele>140.19999694824</ele>
        <time>2011-12-10T08:30:57Z</time>
      </trkpt>
      <trkpt lat="43.4956" lon="3.15445">
        <ele>140.19999694824</ele>
        <time>2011-12-10T08:31:10Z</time>
      </trkpt>
      <trkpt lat="43.49548" lon="3.1548">
        <ele>137.19999694824</ele>
        <time>2011-12-10T08:31:18Z</time>
      </trkpt>
      <trkpt lat="43.49497" lon="3.15466">
        <ele>133</ele>
        <time>2011-12-10T08:31:38Z</time>
      </trkpt>
      <trkpt lat="43.49473" lon="3.15472">
        <ele>130</ele>
        <time>2011-12-10T08:31:44Z</time>
      </trkpt>
      <trkpt lat="43.49335" lon="3.15581">
        <ele>105.59999847412</ele>
        <time>2011-12-10T08:33:04Z</time>
      </trkpt>
      <trkpt lat="43.4929" lon="3.15644">
        <ele>94.599998474121</ele>
        <time>2011-12-10T08:35:28Z</time>
      </trkpt>
      <trkpt lat="43.49261" lon="3.15694">
        <ele>103.19999694824</ele>
        <time>2011-12-10T08:36:47Z</time>
      </trkpt>
      <trkpt lat="43.4921" lon="3.15726">
        <ele>104.40000152588</ele>
        <time>2011-12-10T08:37:12Z</time>
      </trkpt>
      <trkpt lat="43.49106" lon="3.15698">
        <ele>111.59999847412</ele>
        <time>2011-12-10T08:38:31Z</time>
      </trkpt>
      <trkpt lat="43.49091" lon="3.15585">
        <ele>115.80000305176</ele>
        <time>2011-12-10T08:39:07Z</time>
      </trkpt>
      <trkpt lat="43.49075" lon="3.15507">
        <ele>115.80000305176</ele>
        <time>2011-12-10T08:39:48Z</time>
      </trkpt>
      <trkpt lat="43.49039" lon="3.15452">
        <ele>109.19999694824</ele>
        <time>2011-12-10T08:40:13Z</time>
      </trkpt>
      <trkpt lat="43.4899" lon="3.15451">
        <ele>99</ele>
        <time>2011-12-10T08:40:39Z</time>
      </trkpt>
      <trkpt lat="43.49254" lon="3.15124">
        <ele>103.19999694824</ele>
        <time>2011-12-10T08:43:40Z</time>
      </trkpt>
      <trkpt lat="43.49284" lon="3.15177">
        <ele>107.40000152588</ele>
        <time>2011-12-10T08:44:10Z</time>
      </trkpt>
      <trkpt lat="43.49328" lon="3.1513">
        <ele>109.40000152588</ele>
        <time>2011-12-10T08:44:42Z</time>
      </trkpt>
      <trkpt lat="43.49366" lon="3.15089">
        <ele>109.40000152588</ele>
        <time>2011-12-10T08:45:12Z</time>
      </trkpt>
      <trkpt lat="43.49504" lon="3.15273">
        <ele>134.39999389648</ele>
        <time>2011-12-10T08:48:04Z</time>
      </trkpt>
      <trkpt lat="43.49586" lon="3.15422">
        <ele>142.60000610352</ele>
        <time>2011-12-10T08:49:19Z</time>
      </trkpt>
      <trkpt lat="43.49614" lon="3.15389">
        <ele>142.60000610352</ele>
        <time>2011-12-10T08:49:51Z</time>
      </trkpt>
      <trkpt lat="43.49675" lon="3.15421">
        <ele>146.80000305176</ele>
        <time>2011-12-10T08:50:19Z</time>
      </trkpt>
      <trkpt lat="43.49708" lon="3.15331">
        <ele>146.39999389648</ele>
        <time>2011-12-10T08:50:35Z</time>
      </trkpt>
      <trkpt lat="43.49724" lon="3.15275">
        <ele>144.19999694824</ele>
        <time>2011-12-10T08:50:43Z</time>
      </trkpt>
      <trkpt lat="43.49795" lon="3.15121">
        <ele>128.60000610352</ele>
        <time>2011-12-10T08:51:10Z</time>
      </trkpt>
      <trkpt lat="43.49819" lon="3.1501">
        <ele>111.40000152588</ele>
        <time>2011-12-10T08:51:27Z</time>
      </trkpt>
      <trkpt lat="43.49946" lon="3.15187">
        <ele>103</ele>
        <time>2011-12-10T08:52:25Z</time>
      </trkpt>
      <trkpt lat="43.50039" lon="3.15174">
        <ele>105.19999694824</ele>
        <time>2011-12-10T08:53:13Z</time>
      </trkpt>
      <trkpt lat="43.50095" lon="3.14813">
        <ele>131.80000305176</ele>
        <time>2011-12-10T08:56:03Z</time>
      </trkpt>
      <trkpt lat="43.50165" lon="3.14868">
        <ele>134.60000610352</ele>
        <time>2011-12-10T08:56:48Z</time>
      </trkpt>
      <trkpt lat="43.5018" lon="3.14819">
        <ele>134.60000610352</ele>
        <time>2011-12-10T08:57:06Z</time>
      </trkpt>
      <trkpt lat="43.50217" lon="3.14755">
        <ele>129.39999389648</ele>
        <time>2011-12-10T08:57:18Z</time>
      </trkpt>
      <trkpt lat="43.50244" lon="3.14673">
        <ele>116.19999694824</ele>
        <time>2011-12-10T08:57:31Z</time>
      </trkpt>
      <trkpt lat="43.50232" lon="3.14519">
        <ele>118.19999694824</ele>
        <time>2011-12-10T08:58:34Z</time>
      </trkpt>
      <trkpt lat="43.50317" lon="3.14261">
        <ele>132.60000610352</ele>
        <time>2011-12-10T09:00:30Z</time>
      </trkpt>
      <trkpt lat="43.50327" lon="3.14238">
        <ele>132.60000610352</ele>
        <time>2011-12-10T09:00:41Z</time>
      </trkpt>
      <trkpt lat="43.50296" lon="3.14054">
        <ele>140.80000305176</ele>
        <time>2011-12-10T09:01:52Z</time>
      </trkpt>
      <trkpt lat="43.50333" lon="3.13819">
        <ele>168.19999694824</ele>
        <time>2011-12-10T09:04:42Z</time>
      </trkpt>
      <trkpt lat="43.50309" lon="3.13705">
        <ele>181</ele>
        <time>2011-12-10T09:07:23Z</time>
      </trkpt>
      <trkpt lat="43.50353" lon="3.13663">
        <ele>181</ele>
        <time>2011-12-10T09:07:49Z</time>
      </trkpt>
      <trkpt lat="43.5035" lon="3.13634">
        <ele>181</ele>
        <time>2011-12-10T09:07:57Z</time>
      </trkpt>
      <trkpt lat="43.50326" lon="3.13507">
        <ele>172.19999694824</ele>
        <time>2011-12-10T09:08:25Z</time>
      </trkpt>
      <trkpt lat="43.50255" lon="3.13264">
        <ele>154</ele>
        <time>2011-12-10T09:09:04Z</time>
      </trkpt>
      <trkpt lat="43.50166" lon="3.13175">
        <ele>146.19999694824</ele>
        <time>2011-12-10T09:12:46Z</time>
      </trkpt>
      <trkpt lat="43.50241" lon="3.12949">
        <ele>163.19999694824</ele>
        <time>2011-12-10T09:16:24Z</time>
      </trkpt>
      <trkpt lat="43.50328" lon="3.12806">
        <ele>175.60000610352</ele>
        <time>2011-12-10T09:17:43Z</time>
      </trkpt>
      <trkpt lat="43.50356" lon="3.12761">
        <ele>175.60000610352</ele>
        <time>2011-12-10T09:19:19Z</time>
      </trkpt>
      <trkpt lat="43.5043" lon="3.12664">
        <ele>169.39999389648</ele>
        <time>2011-12-10T09:19:37Z</time>
      </trkpt>
      <trkpt lat="43.50482" lon="3.12589">
        <ele>160</ele>
        <time>2011-12-10T09:19:49Z</time>
      </trkpt>
      <trkpt lat="43.50582" lon="3.12534">
        <ele>155.60000610352</ele>
        <time>2011-12-10T09:20:16Z</time>
      </trkpt>
      <trkpt lat="43.50616" lon="3.12503">
        <ele>157.80000305176</ele>
        <time>2011-12-10T09:20:32Z</time>
      </trkpt>
      <trkpt lat="43.50643" lon="3.12443">
        <ele>150</ele>
        <time>2011-12-10T09:20:42Z</time>
      </trkpt>
      <trkpt lat="43.50805" lon="3.12431">
        <ele>156.60000610352</ele>
        <time>2011-12-10T09:22:16Z</time>
      </trkpt>
      <trkpt lat="43.50813" lon="3.12589">
        <ele>166.60000610352</ele>
        <time>2011-12-10T09:23:21Z</time>
      </trkpt>
      <trkpt lat="43.50867" lon="3.12621">
        <ele>170.60000610352</ele>
        <time>2011-12-10T09:23:51Z</time>
      </trkpt>
      <trkpt lat="43.50943" lon="3.12718">
        <ele>172.39999389648</ele>
        <time>2011-12-10T09:25:03Z</time>
      </trkpt>
      <trkpt lat="43.50977" lon="3.12768">
        <ele>172.80000305176</ele>
        <time>2011-12-10T09:27:18Z</time>
      </trkpt>
      <trkpt lat="43.51053" lon="3.12879">
        <ele>173.60000610352</ele>
        <time>2011-12-10T09:27:57Z</time>
      </trkpt>
      <trkpt lat="43.51071" lon="3.12912">
        <ele>174.80000305176</ele>
        <time>2011-12-10T09:28:05Z</time>
      </trkpt>
      <trkpt lat="43.51256" lon="3.1323">
        <ele>181</ele>
        <time>2011-12-10T09:29:29Z</time>
      </trkpt>
      <trkpt lat="43.51667" lon="3.13026">
        <ele>197.60000610352</ele>
        <time>2011-12-10T09:31:40Z</time>
      </trkpt>
      <trkpt lat="43.5181" lon="3.1297">
        <ele>193.80000305176</ele>
        <time>2011-12-10T09:32:06Z</time>
      </trkpt>
      <trkpt lat="43.51857" lon="3.12965">
        <ele>191</ele>
        <time>2011-12-10T09:32:11Z</time>
      </trkpt>
      <trkpt lat="43.51945" lon="3.12979">
        <ele>185.60000610352</ele>
        <time>2011-12-10T09:32:19Z</time>
      </trkpt>
      <trkpt lat="43.52104" lon="3.13298">
        <ele>164.19999694824</ele>
        <time>2011-12-10T09:32:47Z</time>
      </trkpt>
      <trkpt lat="43.52108" lon="3.13308">
        <ele>163.39999389648</ele>
        <time>2011-12-10T09:32:48Z</time>
      </trkpt>
      <trkpt lat="43.52109" lon="3.13388">
        <ele>160.39999389648</ele>
        <time>2011-12-10T09:32:56Z</time>
      </trkpt>
      <trkpt lat="43.52119" lon="3.13409">
        <ele>158.60000610352</ele>
        <time>2011-12-10T09:33:00Z</time>
      </trkpt>
      <trkpt lat="43.52178" lon="3.13334">
        <ele>171.39999389648</ele>
        <time>2011-12-10T09:34:06Z</time>
      </trkpt>
      <trkpt lat="43.52215" lon="3.13337">
        <ele>171.39999389648</ele>
        <time>2011-12-10T09:34:20Z</time>
      </trkpt>
      <trkpt lat="43.52289" lon="3.13361">
        <ele>171</ele>
        <time>2011-12-10T09:34:36Z</time>
      </trkpt>
      <trkpt lat="43.52376" lon="3.13407">
        <ele>169</ele>
        <time>2011-12-10T09:34:53Z</time>
      </trkpt>
      <trkpt lat="43.52649" lon="3.13407">
        <ele>198</ele>
        <time>2011-12-10T09:38:07Z</time>
      </trkpt>
      <trkpt lat="43.52712" lon="3.13429">
        <ele>198</ele>
        <time>2011-12-10T09:38:46Z</time>
      </trkpt>
      <trkpt lat="43.52826" lon="3.13392">
        <ele>207.60000610352</ele>
        <time>2011-12-10T09:40:02Z</time>
      </trkpt>
      <trkpt lat="43.52853" lon="3.13404">
        <ele>212.60000610352</ele>
        <time>2011-12-10T09:40:24Z</time>
      </trkpt>
      <trkpt lat="43.52859" lon="3.13442">
        <ele>217</ele>
        <time>2011-12-10T09:40:48Z</time>
      </trkpt>
      <trkpt lat="43.52866" lon="3.13547">
        <ele>225.19999694824</ele>
        <time>2011-12-10T09:41:48Z</time>
      </trkpt>
      <trkpt lat="43.52869" lon="3.13551">
        <ele>225.19999694824</ele>
        <time>2011-12-10T09:41:51Z</time>
      </trkpt>
      <trkpt lat="43.53046" lon="3.13434">
        <ele>248.39999389648</ele>
        <time>2011-12-10T09:46:07Z</time>
      </trkpt>
      <trkpt lat="43.53427" lon="3.13369">
        <ele>267.60000610352</ele>
        <time>2011-12-10T09:50:04Z</time>
      </trkpt>
      <trkpt lat="43.53579" lon="3.13306">
        <ele>280.39999389648</ele>
        <time>2011-12-10T09:51:32Z</time>
      </trkpt>
      <trkpt lat="43.53695" lon="3.13209">
        <ele>288.79998779297</ele>
        <time>2011-12-10T09:52:52Z</time>
      </trkpt>
      <trkpt lat="43.53959" lon="3.12925">
        <ele>293.20001220703</ele>
        <time>2011-12-10T09:54:46Z</time>
      </trkpt>
      <trkpt lat="43.5404" lon="3.12867">
        <ele>290.39999389648</ele>
        <time>2011-12-10T09:55:52Z</time>
      </trkpt>
      <trkpt lat="43.5408" lon="3.12764">
        <ele>296.79998779297</ele>
        <time>2011-12-10T09:59:27Z</time>
      </trkpt>
      <trkpt lat="43.54189" lon="3.12656">
        <ele>301</ele>
        <time>2011-12-10T10:00:12Z</time>
      </trkpt>
      <trkpt lat="43.5427" lon="3.12527">
        <ele>305.20001220703</ele>
        <time>2011-12-10T10:00:52Z</time>
      </trkpt>
      <trkpt lat="43.5437" lon="3.12436">
        <ele>303.60000610352</ele>
        <time>2011-12-10T10:01:21Z</time>
      </trkpt>
      <trkpt lat="43.54459" lon="3.12525">
        <ele>298.39999389648</ele>
        <time>2011-12-10T10:01:53Z</time>
      </trkpt>
      <trkpt lat="43.54385" lon="3.12713">
        <ele>303</ele>
        <time>2011-12-10T10:06:37Z</time>
      </trkpt>
      <trkpt lat="43.54426" lon="3.12736">
        <ele>311</ele>
        <time>2011-12-10T10:07:15Z</time>
      </trkpt>
      <trkpt lat="43.54492" lon="3.12832">
        <ele>321.39999389648</ele>
        <time>2011-12-10T10:08:29Z</time>
      </trkpt>
      <trkpt lat="43.54497" lon="3.12843">
        <ele>321.39999389648</ele>
        <time>2011-12-10T10:08:35Z</time>
      </trkpt>
      <trkpt lat="43.54554" lon="3.12955">
        <ele>329.60000610352</ele>
        <time>2011-12-10T10:09:25Z</time>
      </trkpt>
      <trkpt lat="43.54633" lon="3.13078">
        <ele>335.79998779297</ele>
        <time>2011-12-10T10:10:17Z</time>
      </trkpt>
      <trkpt lat="43.54795" lon="3.13191">
        <ele>350</ele>
        <time>2011-12-10T10:12:06Z</time>
      </trkpt>
      <trkpt lat="43.54975" lon="3.13192">
        <ele>365.39999389648</ele>
        <time>2011-12-10T10:14:01Z</time>
      </trkpt>
      <trkpt lat="43.55173" lon="3.13153">
        <ele>386.39999389648</ele>
        <time>2011-12-10T10:16:18Z</time>
      </trkpt>
      <trkpt lat="43.55188" lon="3.13158">
        <ele>387.20001220703</ele>
        <time>2011-12-10T10:16:29Z</time>
      </trkpt>
      <trkpt lat="43.55145" lon="3.13085">
        <ele>394.60000610352</ele>
        <time>2011-12-10T10:17:20Z</time>
      </trkpt>
      <trkpt lat="43.55077" lon="3.13084">
        <ele>400.60000610352</ele>
        <time>2011-12-10T10:18:11Z</time>
      </trkpt>
      <trkpt lat="43.55163" lon="3.13023">
        <ele>410.79998779297</ele>
        <time>2011-12-10T10:19:27Z</time>
      </trkpt>
      <trkpt lat="43.55145" lon="3.1299">
        <ele>417</ele>
        <time>2011-12-10T10:20:08Z</time>
      </trkpt>
      <trkpt lat="43.5516" lon="3.12983">
        <ele>419</ele>
        <time>2011-12-10T10:20:21Z</time>
      </trkpt>
      <trkpt lat="43.55174" lon="3.12966">
        <ele>421</ele>
        <time>2011-12-10T10:20:35Z</time>
      </trkpt>
      <trkpt lat="43.55264" lon="3.12794">
        <ele>433.39999389648</ele>
        <time>2011-12-10T10:22:26Z</time>
      </trkpt>
      <trkpt lat="43.55228" lon="3.12798">
        <ele>435.39999389648</ele>
        <time>2011-12-10T10:22:52Z</time>
      </trkpt>
      <trkpt lat="43.55318" lon="3.12452">
        <ele>463.20001220703</ele>
        <time>2011-12-10T10:29:34Z</time>
      </trkpt>
      <trkpt lat="43.55362" lon="3.1256">
        <ele>474.79998779297</ele>
        <time>2011-12-10T10:30:41Z</time>
      </trkpt>
      <trkpt lat="43.55423" lon="3.12588">
        <ele>481</ele>
        <time>2011-12-10T10:31:27Z</time>
      </trkpt>
      <trkpt lat="43.55419" lon="3.12558">
        <ele>485.20001220703</ele>
        <time>2011-12-10T10:31:53Z</time>
      </trkpt>
      <trkpt lat="43.5541" lon="3.12442">
        <ele>493.39999389648</ele>
        <time>2011-12-10T10:32:57Z</time>
      </trkpt>
      <trkpt lat="43.55448" lon="3.12375">
        <ele>499.20001220703</ele>
        <time>2011-12-10T10:33:43Z</time>
      </trkpt>
      <trkpt lat="43.55519" lon="3.12344">
        <ele>507.20001220703</ele>
        <time>2011-12-10T10:34:46Z</time>
      </trkpt>
      <trkpt lat="43.55525" lon="3.12254">
        <ele>516.40002441406</ele>
        <time>2011-12-10T10:35:44Z</time>
      </trkpt>
      <trkpt lat="43.55536" lon="3.1222">
        <ele>518.40002441406</ele>
        <time>2011-12-10T10:36:10Z</time>
      </trkpt>
      <trkpt lat="43.55658" lon="3.12137">
        <ele>533</ele>
        <time>2011-12-10T10:38:04Z</time>
      </trkpt>
      <trkpt lat="43.55705" lon="3.11951">
        <ele>551.79998779297</ele>
        <time>2011-12-10T10:40:19Z</time>
      </trkpt>
      <trkpt lat="43.55776" lon="3.11721">
        <ele>573.79998779297</ele>
        <time>2011-12-10T10:45:28Z</time>
      </trkpt>
      <trkpt lat="43.55802" lon="3.11789">
        <ele>581.20001220703</ele>
        <time>2011-12-10T10:46:23Z</time>
      </trkpt>
      <trkpt lat="43.55806" lon="3.11948">
        <ele>593.79998779297</ele>
        <time>2011-12-10T10:47:59Z</time>
      </trkpt>
      <trkpt lat="43.559" lon="3.12031">
        <ele>606.20001220703</ele>
        <time>2011-12-10T10:49:35Z</time>
      </trkpt>
      <trkpt lat="43.55907" lon="3.12033">
        <ele>606.20001220703</ele>
        <time>2011-12-10T10:49:40Z</time>
      </trkpt>
      <trkpt lat="43.55876" lon="3.11947">
        <ele>616.59997558594</ele>
        <time>2011-12-10T10:52:13Z</time>
      </trkpt>
      <trkpt lat="43.5591" lon="3.11677">
        <ele>637.40002441406</ele>
        <time>2011-12-10T10:54:51Z</time>
      </trkpt>
      <trkpt lat="43.55887" lon="3.11607">
        <ele>639.40002441406</ele>
        <time>2011-12-10T10:55:27Z</time>
      </trkpt>
      <trkpt lat="43.558" lon="3.11553">
        <ele>649.79998779297</ele>
        <time>2011-12-10T10:56:42Z</time>
      </trkpt>
      <trkpt lat="43.55773" lon="3.11543">
        <ele>651.79998779297</ele>
        <time>2011-12-10T10:57:02Z</time>
      </trkpt>
      <trkpt lat="43.55751" lon="3.11523">
        <ele>652.59997558594</ele>
        <time>2011-12-10T10:57:18Z</time>
      </trkpt>
      <trkpt lat="43.55782" lon="3.11413">
        <ele>664</ele>
        <time>2011-12-10T10:58:34Z</time>
      </trkpt>
      <trkpt lat="43.55846" lon="3.11452">
        <ele>672.40002441406</ele>
        <time>2011-12-10T10:59:35Z</time>
      </trkpt>
      <trkpt lat="43.55845" lon="3.11502">
        <ele>676.79998779297</ele>
        <time>2011-12-10T11:00:11Z</time>
      </trkpt>
      <trkpt lat="43.55802" lon="3.11474">
        <ele>685.20001220703</ele>
        <time>2011-12-10T11:28:20Z</time>
      </trkpt>
      <trkpt lat="43.55738" lon="3.11328">
        <ele>654</ele>
        <time>2011-12-10T11:33:50Z</time>
      </trkpt>
      <trkpt lat="43.55741" lon="3.11234">
        <ele>662.40002441406</ele>
        <time>2011-12-10T11:34:51Z</time>
      </trkpt>
      <trkpt lat="43.55696" lon="3.11176">
        <ele>680.79998779297</ele>
        <time>2011-12-10T11:37:53Z</time>
      </trkpt>
      <trkpt lat="43.55684" lon="3.11129">
        <ele>682.79998779297</ele>
        <time>2011-12-10T11:38:44Z</time>
      </trkpt>
      <trkpt lat="43.55692" lon="3.11022">
        <ele>691.20001220703</ele>
        <time>2011-12-10T11:40:10Z</time>
      </trkpt>
      <trkpt lat="43.55662" lon="3.10882">
        <ele>684.59997558594</ele>
        <time>2011-12-10T11:41:41Z</time>
      </trkpt>
      <trkpt lat="43.55652" lon="3.10822">
        <ele>676.79998779297</ele>
        <time>2011-12-10T11:41:51Z</time>
      </trkpt>
      <trkpt lat="43.5564" lon="3.10754">
        <ele>665.20001220703</ele>
        <time>2011-12-10T11:42:02Z</time>
      </trkpt>
      <trkpt lat="43.55588" lon="3.10714">
        <ele>660.20001220703</ele>
        <time>2011-12-10T11:42:33Z</time>
      </trkpt>
      <trkpt lat="43.55519" lon="3.10515">
        <ele>610.79998779297</ele>
        <time>2011-12-10T11:46:43Z</time>
      </trkpt>
      <trkpt lat="43.55631" lon="3.10463">
        <ele>584.59997558594</ele>
        <time>2011-12-10T11:51:02Z</time>
      </trkpt>
      <trkpt lat="43.55703" lon="3.10507">
        <ele>580.40002441406</ele>
        <time>2011-12-10T11:51:48Z</time>
      </trkpt>
      <trkpt lat="43.5574" lon="3.10496">
        <ele>576.59997558594</ele>
        <time>2011-12-10T11:51:58Z</time>
      </trkpt>
      <trkpt lat="43.55838" lon="3.10524">
        <ele>570.59997558594</ele>
        <time>2011-12-10T11:52:17Z</time>
      </trkpt>
      <trkpt lat="43.55997" lon="3.10477">
        <ele>559.20001220703</ele>
        <time>2011-12-10T11:52:55Z</time>
      </trkpt>
      <trkpt lat="43.56118" lon="3.10205">
        <ele>530.20001220703</ele>
        <time>2011-12-10T11:54:42Z</time>
      </trkpt>
      <trkpt lat="43.56284" lon="3.10226">
        <ele>516.79998779297</ele>
        <time>2011-12-10T11:55:20Z</time>
      </trkpt>
      <trkpt lat="43.56493" lon="3.10173">
        <ele>483.39999389648</ele>
        <time>2011-12-10T11:59:05Z</time>
      </trkpt>
      <trkpt lat="43.56536" lon="3.10173">
        <ele>475</ele>
        <time>2011-12-10T11:59:14Z</time>
      </trkpt>
      <trkpt lat="43.56566" lon="3.10096">
        <ele>468.60000610352</ele>
        <time>2011-12-10T11:59:30Z</time>
      </trkpt>
      <trkpt lat="43.56605" lon="3.1007">
        <ele>462.60000610352</ele>
        <time>2011-12-10T11:59:38Z</time>
      </trkpt>
      <trkpt lat="43.56805" lon="3.10118">
        <ele>434.20001220703</ele>
        <time>2011-12-10T12:03:39Z</time>
      </trkpt>
      <trkpt lat="43.56876" lon="3.10053">
        <ele>426.39999389648</ele>
        <time>2011-12-10T12:05:45Z</time>
      </trkpt>
      <trkpt lat="43.57026" lon="3.10169">
        <ele>410.20001220703</ele>
        <time>2011-12-10T12:06:50Z</time>
      </trkpt>
      <trkpt lat="43.57109" lon="3.10074">
        <ele>406</ele>
        <time>2011-12-10T12:07:29Z</time>
      </trkpt>
      <trkpt lat="43.57176" lon="3.10033">
        <ele>400.60000610352</ele>
        <time>2011-12-10T12:07:42Z</time>
      </trkpt>
      <trkpt lat="43.57218" lon="3.09977">
        <ele>389.79998779297</ele>
        <time>2011-12-10T12:07:58Z</time>
      </trkpt>
      <trkpt lat="43.57283" lon="3.09965">
        <ele>385.60000610352</ele>
        <time>2011-12-10T12:08:26Z</time>
      </trkpt>
      <trkpt lat="43.57358" lon="3.09962">
        <ele>368.60000610352</ele>
        <time>2011-12-10T12:09:59Z</time>
      </trkpt>
      <trkpt lat="43.57425" lon="3.1001">
        <ele>348.20001220703</ele>
        <time>2011-12-10T12:10:22Z</time>
      </trkpt>
      <trkpt lat="43.57439" lon="3.10155">
        <ele>319</ele>
        <time>2011-12-10T12:10:46Z</time>
      </trkpt>
      <trkpt lat="43.57422" lon="3.10265">
        <ele>294.20001220703</ele>
        <time>2011-12-10T12:11:11Z</time>
      </trkpt>
      <trkpt lat="43.57422" lon="3.10304">
        <ele>279.39999389648</ele>
        <time>2011-12-10T12:12:47Z</time>
      </trkpt>
      <trkpt lat="43.57362" lon="3.10342">
        <ele>252.80000305176</ele>
        <time>2011-12-10T12:14:53Z</time>
      </trkpt>
      <trkpt lat="43.57349" lon="3.10357">
        <ele>245</ele>
        <time>2011-12-10T12:15:09Z</time>
      </trkpt>
      <trkpt lat="43.57358" lon="3.10432">
        <ele>227.60000610352</ele>
        <time>2011-12-10T12:16:38Z</time>
      </trkpt>
      <trkpt lat="43.57197" lon="3.10399">
        <ele>240</ele>
        <time>2011-12-10T12:22:29Z</time>
      </trkpt>
      <trkpt lat="43.57117" lon="3.10452">
        <ele>250.60000610352</ele>
        <time>2011-12-10T12:24:01Z</time>
      </trkpt>
      <trkpt lat="43.57018" lon="3.10472">
        <ele>263</ele>
        <time>2011-12-10T12:25:43Z</time>
      </trkpt>
      <trkpt lat="43.57004" lon="3.10483">
        <ele>263.79998779297</ele>
        <time>2011-12-10T12:26:00Z</time>
      </trkpt>
      <trkpt lat="43.56962" lon="3.10497">
        <ele>269.20001220703</ele>
        <time>2011-12-10T12:26:40Z</time>
      </trkpt>
      <trkpt lat="43.56943" lon="3.10505">
        <ele>271.20001220703</ele>
        <time>2011-12-10T12:26:57Z</time>
      </trkpt>
      <trkpt lat="43.56886" lon="3.10529">
        <ele>273.39999389648</ele>
        <time>2011-12-10T12:27:38Z</time>
      </trkpt>
      <trkpt lat="43.56759" lon="3.10649">
        <ele>281.79998779297</ele>
        <time>2011-12-10T12:29:12Z</time>
      </trkpt>
      <trkpt lat="43.56685" lon="3.10876">
        <ele>296.39999389648</ele>
        <time>2011-12-10T12:32:04Z</time>
      </trkpt>
      <trkpt lat="43.56678" lon="3.10888">
        <ele>296.39999389648</ele>
        <time>2011-12-10T12:32:13Z</time>
      </trkpt>
      <trkpt lat="43.567" lon="3.10712">
        <ele>311</ele>
        <time>2011-12-10T12:34:53Z</time>
      </trkpt>
      <trkpt lat="43.56571" lon="3.10591">
        <ele>329.60000610352</ele>
        <time>2011-12-10T12:37:31Z</time>
      </trkpt>
      <trkpt lat="43.56519" lon="3.10497">
        <ele>335.79998779297</ele>
        <time>2011-12-10T12:38:43Z</time>
      </trkpt>
      <trkpt lat="43.56557" lon="3.10444">
        <ele>342</ele>
        <time>2011-12-10T12:39:35Z</time>
      </trkpt>
      <trkpt lat="43.56595" lon="3.10485">
        <ele>348.20001220703</ele>
        <time>2011-12-10T12:40:21Z</time>
      </trkpt>
      <trkpt lat="43.56674" lon="3.10507">
        <ele>356.39999389648</ele>
        <time>2011-12-10T12:41:38Z</time>
      </trkpt>
      <trkpt lat="43.56697" lon="3.10378">
        <ele>363.39999389648</ele>
        <time>2011-12-10T12:43:11Z</time>
      </trkpt>
      <trkpt lat="43.56683" lon="3.1025">
        <ele>370.60000610352</ele>
        <time>2011-12-10T12:44:31Z</time>
      </trkpt>
      <trkpt lat="43.56751" lon="3.10241">
        <ele>374.79998779297</ele>
        <time>2011-12-10T12:45:25Z</time>
      </trkpt>
      <trkpt lat="43.56834" lon="3.10262">
        <ele>376.79998779297</ele>
        <time>2011-12-10T12:46:24Z</time>
      </trkpt>
      <trkpt lat="43.56893" lon="3.10125">
        <ele>387.20001220703</ele>
        <time>2011-12-10T12:48:40Z</time>
      </trkpt>
      <trkpt lat="43.5684" lon="3.10185">
        <ele>397.60000610352</ele>
        <time>2011-12-10T12:49:57Z</time>
      </trkpt>
      <trkpt lat="43.56828" lon="3.10202">
        <ele>399.60000610352</ele>
        <time>2011-12-10T12:50:16Z</time>
      </trkpt>
      <trkpt lat="43.56642" lon="3.1014">
        <ele>416.20001220703</ele>
        <time>2011-12-10T12:57:34Z</time>
      </trkpt>
      <trkpt lat="43.56599" lon="3.10277">
        <ele>428.79998779297</ele>
        <time>2011-12-10T12:59:12Z</time>
      </trkpt>
      <trkpt lat="43.56566" lon="3.10263">
        <ele>433</ele>
        <time>2011-12-10T12:59:50Z</time>
      </trkpt>
      <trkpt lat="43.56512" lon="3.10252">
        <ele>437</ele>
        <time>2011-12-10T13:00:36Z</time>
      </trkpt>
      <trkpt lat="43.56495" lon="3.10266">
        <ele>439</ele>
        <time>2011-12-10T13:00:52Z</time>
      </trkpt>
      <trkpt lat="43.56494" lon="3.10267">
        <ele>439</ele>
        <time>2011-12-10T13:00:53Z</time>
      </trkpt>
      <trkpt lat="43.56403" lon="3.10304">
        <ele>449.60000610352</ele>
        <time>2011-12-10T13:02:25Z</time>
      </trkpt>
      <trkpt lat="43.56347" lon="3.10302">
        <ele>453.60000610352</ele>
        <time>2011-12-10T13:03:14Z</time>
      </trkpt>
      <trkpt lat="43.56315" lon="3.10352">
        <ele>457.60000610352</ele>
        <time>2011-12-10T13:03:54Z</time>
      </trkpt>
      <trkpt lat="43.56252" lon="3.10629">
        <ele>479</ele>
        <time>2011-12-10T13:07:19Z</time>
      </trkpt>
      <trkpt lat="43.56345" lon="3.10676">
        <ele>488</ele>
        <time>2011-12-10T13:09:10Z</time>
      </trkpt>
      <trkpt lat="43.56375" lon="3.10746">
        <ele>492.60000610352</ele>
        <time>2011-12-10T13:10:45Z</time>
      </trkpt>
      <trkpt lat="43.56263" lon="3.10814">
        <ele>503</ele>
        <time>2011-12-10T13:16:24Z</time>
      </trkpt>
      <trkpt lat="43.56217" lon="3.10878">
        <ele>509.20001220703</ele>
        <time>2011-12-10T13:17:19Z</time>
      </trkpt>
      <trkpt lat="43.56154" lon="3.1085">
        <ele>517.59997558594</ele>
        <time>2011-12-10T13:18:23Z</time>
      </trkpt>
      <trkpt lat="43.56095" lon="3.10845">
        <ele>521.79998779297</ele>
        <time>2011-12-10T13:19:12Z</time>
      </trkpt>
      <trkpt lat="43.56038" lon="3.10804">
        <ele>527.40002441406</ele>
        <time>2011-12-10T13:20:01Z</time>
      </trkpt>
      <trkpt lat="43.55974" lon="3.10821">
        <ele>532</ele>
        <time>2011-12-10T13:20:56Z</time>
      </trkpt>
      <trkpt lat="43.55984" lon="3.10938">
        <ele>542.40002441406</ele>
        <time>2011-12-10T13:22:13Z</time>
      </trkpt>
      <trkpt lat="43.55963" lon="3.10982">
        <ele>543.20001220703</ele>
        <time>2011-12-10T13:23:39Z</time>
      </trkpt>
      <trkpt lat="43.55932" lon="3.11021">
        <ele>544.40002441406</ele>
        <time>2011-12-10T13:23:57Z</time>
      </trkpt>
      <trkpt lat="43.55883" lon="3.11134">
        <ele>546.40002441406</ele>
        <time>2011-12-10T13:24:29Z</time>
      </trkpt>
      <trkpt lat="43.55902" lon="3.11229">
        <ele>544.40002441406</ele>
        <time>2011-12-10T13:24:46Z</time>
      </trkpt>
      <trkpt lat="43.55995" lon="3.11257">
        <ele>550.20001220703</ele>
        <time>2011-12-10T13:25:31Z</time>
      </trkpt>
      <trkpt lat="43.56024" lon="3.11373">
        <ele>554.59997558594</ele>
        <time>2011-12-10T13:26:31Z</time>
      </trkpt>
      <trkpt lat="43.56" lon="3.11421">
        <ele>561</ele>
        <time>2011-12-10T13:27:10Z</time>
      </trkpt>
      <trkpt lat="43.56005" lon="3.11453">
        <ele>563</ele>
        <time>2011-12-10T13:27:30Z</time>
      </trkpt>
      <trkpt lat="43.56033" lon="3.11512">
        <ele>565</ele>
        <time>2011-12-10T13:28:04Z</time>
      </trkpt>
      <trkpt lat="43.56019" lon="3.11653">
        <ele>577.59997558594</ele>
        <time>2011-12-10T13:29:34Z</time>
      </trkpt>
      <trkpt lat="43.56023" lon="3.1166">
        <ele>577.59997558594</ele>
        <time>2011-12-10T13:29:40Z</time>
      </trkpt>
      <trkpt lat="43.56095" lon="3.11734">
        <ele>590.20001220703</ele>
        <time>2011-12-10T13:31:49Z</time>
      </trkpt>
      <trkpt lat="43.56197" lon="3.11725">
        <ele>600.59997558594</ele>
        <time>2011-12-10T13:33:28Z</time>
      </trkpt>
      <trkpt lat="43.56193" lon="3.11737">
        <ele>600.59997558594</ele>
        <time>2011-12-10T13:33:38Z</time>
      </trkpt>
      <trkpt lat="43.56144" lon="3.11777">
        <ele>604.59997558594</ele>
        <time>2011-12-10T13:34:25Z</time>
      </trkpt>
      <trkpt lat="43.56061" lon="3.11776">
        <ele>613</ele>
        <time>2011-12-10T13:35:32Z</time>
      </trkpt>
      <trkpt lat="43.5597" lon="3.11728">
        <ele>623</ele>
        <time>2011-12-10T13:37:01Z</time>
      </trkpt>
      <trkpt lat="43.55935" lon="3.11684">
        <ele>625.20001220703</ele>
        <time>2011-12-10T13:38:21Z</time>
      </trkpt>
      <trkpt lat="43.55892" lon="3.11611">
        <ele>631.79998779297</ele>
        <time>2011-12-10T13:39:18Z</time>
      </trkpt>
      <trkpt lat="43.558" lon="3.11557">
        <ele>644</ele>
        <time>2011-12-10T13:40:57Z</time>
      </trkpt>
      <trkpt lat="43.55752" lon="3.11529">
        <ele>648.20001220703</ele>
        <time>2011-12-10T13:41:47Z</time>
      </trkpt>
      <trkpt lat="43.55787" lon="3.11412">
        <ele>660.79998779297</ele>
        <time>2011-12-10T13:46:55Z</time>
      </trkpt>
      <trkpt lat="43.55771" lon="3.11386">
        <ele>653.59997558594</ele>
        <time>2011-12-10T13:48:05Z</time>
      </trkpt>
      <trkpt lat="43.5574" lon="3.11332">
        <ele>650.20001220703</ele>
        <time>2011-12-10T13:48:57Z</time>
      </trkpt>
      <trkpt lat="43.55739" lon="3.1125">
        <ele>658.59997558594</ele>
        <time>2011-12-10T13:49:58Z</time>
      </trkpt>
      <trkpt lat="43.55739" lon="3.11232">
        <ele>658.59997558594</ele>
        <time>2011-12-10T13:50:11Z</time>
      </trkpt>
      <trkpt lat="43.55693" lon="3.11157">
        <ele>679.20001220703</ele>
        <time>2011-12-10T13:53:19Z</time>
      </trkpt>
      <trkpt lat="43.55691" lon="3.11151">
        <ele>679.20001220703</ele>
        <time>2011-12-10T13:53:26Z</time>
      </trkpt>
      <trkpt lat="43.55689" lon="3.11032">
        <ele>687.40002441406</ele>
        <time>2011-12-10T13:55:24Z</time>
      </trkpt>
      <trkpt lat="43.55673" lon="3.10949">
        <ele>687</ele>
        <time>2011-12-10T13:56:45Z</time>
      </trkpt>
      <trkpt lat="43.55659" lon="3.10831">
        <ele>673.20001220703</ele>
        <time>2011-12-10T13:57:10Z</time>
      </trkpt>
      <trkpt lat="43.55643" lon="3.10753">
        <ele>662.79998779297</ele>
        <time>2011-12-10T13:57:26Z</time>
      </trkpt>
      <trkpt lat="43.55596" lon="3.10719">
        <ele>657.40002441406</ele>
        <time>2011-12-10T13:57:52Z</time>
      </trkpt>
      <trkpt lat="43.55526" lon="3.10532">
        <ele>612.20001220703</ele>
        <time>2011-12-10T14:00:36Z</time>
      </trkpt>
      <trkpt lat="43.55374" lon="3.10624">
        <ele>574.79998779297</ele>
        <time>2011-12-10T14:02:25Z</time>
      </trkpt>
      <trkpt lat="43.55341" lon="3.1069">
        <ele>556.59997558594</ele>
        <time>2011-12-10T14:02:51Z</time>
      </trkpt>
      <trkpt lat="43.5531" lon="3.10651">
        <ele>548.20001220703</ele>
        <time>2011-12-10T14:03:34Z</time>
      </trkpt>
      <trkpt lat="43.55183" lon="3.10685">
        <ele>530.20001220703</ele>
        <time>2011-12-10T14:04:17Z</time>
      </trkpt>
      <trkpt lat="43.55168" lon="3.10684">
        <ele>525.59997558594</ele>
        <time>2011-12-10T14:04:26Z</time>
      </trkpt>
      <trkpt lat="43.55205" lon="3.10796">
        <ele>511.79998779297</ele>
        <time>2011-12-10T14:05:09Z</time>
      </trkpt>
      <trkpt lat="43.55179" lon="3.10915">
        <ele>504</ele>
        <time>2011-12-10T14:06:05Z</time>
      </trkpt>
      <trkpt lat="43.55158" lon="3.10967">
        <ele>495</ele>
        <time>2011-12-10T14:06:44Z</time>
      </trkpt>
      <trkpt lat="43.55079" lon="3.11136">
        <ele>486.60000610352</ele>
        <time>2011-12-10T14:07:18Z</time>
      </trkpt>
      <trkpt lat="43.55073" lon="3.11288">
        <ele>485.20001220703</ele>
        <time>2011-12-10T14:07:52Z</time>
      </trkpt>
      <trkpt lat="43.55066" lon="3.11349">
        <ele>483.79998779297</ele>
        <time>2011-12-10T14:08:01Z</time>
      </trkpt>
      <trkpt lat="43.55064" lon="3.11363">
        <ele>483</ele>
        <time>2011-12-10T14:08:03Z</time>
      </trkpt>
      <trkpt lat="43.55065" lon="3.11416">
        <ele>479.20001220703</ele>
        <time>2011-12-10T14:08:10Z</time>
      </trkpt>
      <trkpt lat="43.54958" lon="3.11588">
        <ele>449.60000610352</ele>
        <time>2011-12-10T14:08:47Z</time>
      </trkpt>
      <trkpt lat="43.54913" lon="3.11672">
        <ele>438</ele>
        <time>2011-12-10T14:08:57Z</time>
      </trkpt>
      <trkpt lat="43.54831" lon="3.11718">
        <ele>427.79998779297</ele>
        <time>2011-12-10T14:09:10Z</time>
      </trkpt>
      <trkpt lat="43.54826" lon="3.11722">
        <ele>426.79998779297</ele>
        <time>2011-12-10T14:09:11Z</time>
      </trkpt>
      <trkpt lat="43.54752" lon="3.11863">
        <ele>402.60000610352</ele>
        <time>2011-12-10T14:10:23Z</time>
      </trkpt>
      <trkpt lat="43.54463" lon="3.11929">
        <ele>353.39999389648</ele>
        <time>2011-12-10T14:11:17Z</time>
      </trkpt>
      <trkpt lat="43.54385" lon="3.1199">
        <ele>338</ele>
        <time>2011-12-10T14:12:51Z</time>
      </trkpt>
      <trkpt lat="43.54411" lon="3.12205">
        <ele>329.20001220703</ele>
        <time>2011-12-10T14:15:34Z</time>
      </trkpt>
      <trkpt lat="43.54372" lon="3.12237">
        <ele>319</ele>
        <time>2011-12-10T14:15:51Z</time>
      </trkpt>
      <trkpt lat="43.54406" lon="3.12371">
        <ele>317</ele>
        <time>2011-12-10T14:17:42Z</time>
      </trkpt>
      <trkpt lat="43.54423" lon="3.12438">
        <ele>309.39999389648</ele>
        <time>2011-12-10T14:17:55Z</time>
      </trkpt>
      <trkpt lat="43.54454" lon="3.12459">
        <ele>307.20001220703</ele>
        <time>2011-12-10T14:18:06Z</time>
      </trkpt>
      <trkpt lat="43.54492" lon="3.12469">
        <ele>299.79998779297</ele>
        <time>2011-12-10T14:18:20Z</time>
      </trkpt>
      <trkpt lat="43.54464" lon="3.12484">
        <ele>297</ele>
        <time>2011-12-10T14:18:31Z</time>
      </trkpt>
      <trkpt lat="43.5446" lon="3.12531">
        <ele>295.60000610352</ele>
        <time>2011-12-10T14:22:27Z</time>
      </trkpt>
      <trkpt lat="43.54371" lon="3.12439">
        <ele>295.79998779297</ele>
        <time>2011-12-10T14:23:26Z</time>
      </trkpt>
      <trkpt lat="43.543" lon="3.12499">
        <ele>302</ele>
        <time>2011-12-10T14:24:04Z</time>
      </trkpt>
      <trkpt lat="43.54255" lon="3.12554">
        <ele>302</ele>
        <time>2011-12-10T14:24:22Z</time>
      </trkpt>
      <trkpt lat="43.54216" lon="3.12614">
        <ele>300.60000610352</ele>
        <time>2011-12-10T14:24:33Z</time>
      </trkpt>
      <trkpt lat="43.54127" lon="3.12708">
        <ele>296.20001220703</ele>
        <time>2011-12-10T14:24:51Z</time>
      </trkpt>
      <trkpt lat="43.54028" lon="3.12865">
        <ele>290.20001220703</ele>
        <time>2011-12-10T14:25:13Z</time>
      </trkpt>
      <trkpt lat="43.53707" lon="3.13207">
        <ele>286.39999389648</ele>
        <time>2011-12-10T14:26:35Z</time>
      </trkpt>
      <trkpt lat="43.53547" lon="3.13315">
        <ele>278</ele>
        <time>2011-12-10T14:27:00Z</time>
      </trkpt>
      <trkpt lat="43.53283" lon="3.13404">
        <ele>261.60000610352</ele>
        <time>2011-12-10T14:27:30Z</time>
      </trkpt>
      <trkpt lat="43.53067" lon="3.1343">
        <ele>246</ele>
        <time>2011-12-10T14:27:54Z</time>
      </trkpt>
      <trkpt lat="43.5297" lon="3.13482">
        <ele>241.19999694824</ele>
        <time>2011-12-10T14:28:06Z</time>
      </trkpt>
      <trkpt lat="43.52866" lon="3.13561">
        <ele>226</ele>
        <time>2011-12-10T14:28:18Z</time>
      </trkpt>
      <trkpt lat="43.52864" lon="3.13777">
        <ele>227</ele>
        <time>2011-12-10T14:29:31Z</time>
      </trkpt>
      <trkpt lat="43.52771" lon="3.13812">
        <ele>240</ele>
        <time>2011-12-10T14:37:30Z</time>
      </trkpt>
      <trkpt lat="43.5267" lon="3.13824">
        <ele>240.39999389648</ele>
        <time>2011-12-10T14:40:34Z</time>
      </trkpt>
      <trkpt lat="43.52576" lon="3.13923">
        <ele>248.19999694824</ele>
        <time>2011-12-10T14:41:27Z</time>
      </trkpt>
      <trkpt lat="43.52496" lon="3.14036">
        <ele>248.19999694824</ele>
        <time>2011-12-10T14:42:02Z</time>
      </trkpt>
      <trkpt lat="43.52491" lon="3.14066">
        <ele>250.19999694824</ele>
        <time>2011-12-10T14:42:07Z</time>
      </trkpt>
      <trkpt lat="43.52433" lon="3.1413">
        <ele>250.19999694824</ele>
        <time>2011-12-10T14:42:26Z</time>
      </trkpt>
      <trkpt lat="43.52376" lon="3.14137">
        <ele>250.19999694824</ele>
        <time>2011-12-10T14:42:44Z</time>
      </trkpt>
      <trkpt lat="43.52332" lon="3.14199">
        <ele>250.19999694824</ele>
        <time>2011-12-10T14:43:00Z</time>
      </trkpt>
      <trkpt lat="43.52273" lon="3.14288">
        <ele>243</ele>
        <time>2011-12-10T14:43:13Z</time>
      </trkpt>
      <trkpt lat="43.52214" lon="3.14282">
        <ele>240.19999694824</ele>
        <time>2011-12-10T14:43:32Z</time>
      </trkpt>
      <trkpt lat="43.52138" lon="3.14231">
        <ele>215.60000610352</ele>
        <time>2011-12-10T14:44:08Z</time>
      </trkpt>
      <trkpt lat="43.52041" lon="3.14224">
        <ele>198</ele>
        <time>2011-12-10T14:44:22Z</time>
      </trkpt>
      <trkpt lat="43.51925" lon="3.14251">
        <ele>158</ele>
        <time>2011-12-10T14:46:11Z</time>
      </trkpt>
      <trkpt lat="43.51885" lon="3.14204">
        <ele>155.19999694824</ele>
        <time>2011-12-10T14:46:24Z</time>
      </trkpt>
      <trkpt lat="43.51899" lon="3.14183">
        <ele>156</ele>
        <time>2011-12-10T14:46:53Z</time>
      </trkpt>
      <trkpt lat="43.51874" lon="3.14213">
        <ele>155</ele>
        <time>2011-12-10T14:47:01Z</time>
      </trkpt>
      <trkpt lat="43.51821" lon="3.14196">
        <ele>152.19999694824</ele>
        <time>2011-12-10T14:47:08Z</time>
      </trkpt>
      <trkpt lat="43.51767" lon="3.14144">
        <ele>148</ele>
        <time>2011-12-10T14:47:15Z</time>
      </trkpt>
      <trkpt lat="43.51395" lon="3.13952">
        <ele>147.39999389648</ele>
        <time>2011-12-10T14:48:29Z</time>
      </trkpt>
      <trkpt lat="43.51285" lon="3.13862">
        <ele>154.19999694824</ele>
        <time>2011-12-10T14:49:23Z</time>
      </trkpt>
      <trkpt lat="43.51264" lon="3.13812">
        <ele>153.80000305176</ele>
        <time>2011-12-10T14:49:34Z</time>
      </trkpt>
      <trkpt lat="43.51089" lon="3.13896">
        <ele>147</ele>
        <time>2011-12-10T14:50:06Z</time>
      </trkpt>
      <trkpt lat="43.50894" lon="3.13735">
        <ele>157.39999389648</ele>
        <time>2011-12-10T14:54:24Z</time>
      </trkpt>
      <trkpt lat="43.50628" lon="3.13801">
        <ele>182.19999694824</ele>
        <time>2011-12-10T14:59:48Z</time>
      </trkpt>
      <trkpt lat="43.50571" lon="3.13773">
        <ele>190.60000610352</ele>
        <time>2011-12-10T15:00:41Z</time>
      </trkpt>
      <trkpt lat="43.50538" lon="3.13711">
        <ele>192.80000305176</ele>
        <time>2011-12-10T15:01:38Z</time>
      </trkpt>
      <trkpt lat="43.50477" lon="3.13688">
        <ele>190.19999694824</ele>
        <time>2011-12-10T15:02:06Z</time>
      </trkpt>
      <trkpt lat="43.50399" lon="3.13665">
        <ele>180</ele>
        <time>2011-12-10T15:02:33Z</time>
      </trkpt>
      <trkpt lat="43.50379" lon="3.1367">
        <ele>177.80000305176</ele>
        <time>2011-12-10T15:02:49Z</time>
      </trkpt>
      <trkpt lat="43.5036" lon="3.13658">
        <ele>176.60000610352</ele>
        <time>2011-12-10T15:02:54Z</time>
      </trkpt>
      <trkpt lat="43.50224" lon="3.13807">
        <ele>179.80000305176</ele>
        <time>2011-12-10T15:04:12Z</time>
      </trkpt>
      <trkpt lat="43.50167" lon="3.13822">
        <ele>186.19999694824</ele>
        <time>2011-12-10T15:04:56Z</time>
      </trkpt>
      <trkpt lat="43.50111" lon="3.13812">
        <ele>186.19999694824</ele>
        <time>2011-12-10T15:05:20Z</time>
      </trkpt>
      <trkpt lat="43.50073" lon="3.13949">
        <ele>187.80000305176</ele>
        <time>2011-12-10T15:05:49Z</time>
      </trkpt>
      <trkpt lat="43.50074" lon="3.14153">
        <ele>192</ele>
        <time>2011-12-10T15:06:53Z</time>
      </trkpt>
      <trkpt lat="43.50026" lon="3.14254">
        <ele>189.80000305176</ele>
        <time>2011-12-10T15:07:13Z</time>
      </trkpt>
      <trkpt lat="43.49945" lon="3.14271">
        <ele>192</ele>
        <time>2011-12-10T15:07:53Z</time>
      </trkpt>
      <trkpt lat="43.49838" lon="3.14237">
        <ele>184.39999389648</ele>
        <time>2011-12-10T15:08:18Z</time>
      </trkpt>
      <trkpt lat="43.49799" lon="3.14324">
        <ele>163.19999694824</ele>
        <time>2011-12-10T15:08:35Z</time>
      </trkpt>
      <trkpt lat="43.49785" lon="3.14393">
        <ele>151.19999694824</ele>
        <time>2011-12-10T15:08:44Z</time>
      </trkpt>
      <trkpt lat="43.49857" lon="3.14513">
        <ele>135.19999694824</ele>
        <time>2011-12-10T15:09:06Z</time>
      </trkpt>
      <trkpt lat="43.49846" lon="3.14623">
        <ele>126.40000152588</ele>
        <time>2011-12-10T15:09:17Z</time>
      </trkpt>
      <trkpt lat="43.49856" lon="3.14661">
        <ele>116.80000305176</ele>
        <time>2011-12-10T15:09:25Z</time>
      </trkpt>
      <trkpt lat="43.4986" lon="3.14667">
        <ele>112.40000152588</ele>
        <time>2011-12-10T15:09:29Z</time>
      </trkpt>
      <trkpt lat="43.49752" lon="3.14846">
        <ele>95</ele>
        <time>2011-12-10T15:10:04Z</time>
      </trkpt>
      <trkpt lat="43.49667" lon="3.14857">
        <ele>91.199996948242</ele>
        <time>2011-12-10T15:12:54Z</time>
      </trkpt>
      <trkpt lat="43.49636" lon="3.14907">
        <ele>93.400001525879</ele>
        <time>2011-12-10T15:13:58Z</time>
      </trkpt>
      <trkpt lat="43.49804" lon="3.14935">
        <ele>97.599998474121</ele>
        <time>2011-12-10T15:15:17Z</time>
      </trkpt>
      <trkpt lat="43.49819" lon="3.1501">
        <ele>101.80000305176</ele>
        <time>2011-12-10T15:15:47Z</time>
      </trkpt>
      <trkpt lat="43.49881" lon="3.15072">
        <ele>101.80000305176</ele>
        <time>2011-12-10T15:16:13Z</time>
      </trkpt>
      <trkpt lat="43.49994" lon="3.15276">
        <ele>100</ele>
        <time>2011-12-10T15:17:18Z</time>
      </trkpt>
      <trkpt lat="43.50052" lon="3.15286">
        <ele>105.80000305176</ele>
        <time>2011-12-10T15:17:51Z</time>
      </trkpt>
      <trkpt lat="43.50101" lon="3.15292">
        <ele>105.80000305176</ele>
        <time>2011-12-10T15:18:09Z</time>
      </trkpt>
      <trkpt lat="43.50179" lon="3.15506">
        <ele>108.19999694824</ele>
        <time>2011-12-10T15:18:56Z</time>
      </trkpt>
      <trkpt lat="43.50214" lon="3.15772">
        <ele>126.19999694824</ele>
        <time>2011-12-10T15:20:58Z</time>
      </trkpt>
      <trkpt lat="43.5022" lon="3.15806">
        <ele>127.40000152588</ele>
        <time>2011-12-10T15:21:13Z</time>
      </trkpt>
      <trkpt lat="43.50253" lon="3.15818">
        <ele>130.19999694824</ele>
        <time>2011-12-10T15:21:32Z</time>
      </trkpt>
      <trkpt lat="43.50321" lon="3.1584">
        <ele>132.19999694824</ele>
        <time>2011-12-10T15:21:59Z</time>
      </trkpt>
      <trkpt lat="43.50343" lon="3.15853">
        <ele>132.19999694824</ele>
        <time>2011-12-10T15:22:22Z</time>
      </trkpt>
      <trkpt lat="43.50318" lon="3.15937">
        <ele>132.19999694824</ele>
        <time>2011-12-10T15:22:39Z</time>
      </trkpt>
      <trkpt lat="43.50314" lon="3.15991">
        <ele>129.60000610352</ele>
        <time>2011-12-10T15:22:51Z</time>
      </trkpt>
      <trkpt lat="43.50322" lon="3.1607">
        <ele>118.40000152588</ele>
        <time>2011-12-10T15:23:07Z</time>
      </trkpt>
      <trkpt lat="43.50308" lon="3.16128">
        <ele>110.40000152588</ele>
        <time>2011-12-10T15:23:15Z</time>
      </trkpt>
      <trkpt lat="43.50134" lon="3.1654">
        <ele>132.19999694824</ele>
        <time>2011-12-10T15:26:17Z</time>
      </trkpt>
      <trkpt lat="43.50077" lon="3.16584">
        <ele>134.39999389648</ele>
        <time>2011-12-10T15:27:35Z</time>
      </trkpt>
    </trkseg>
  </trk>
</gpx>